EDDMDTMB

Guest
Details From EDDM - Muenchen Franz-josef Strauss
To DTMB - Monastir Habib Bourguiba Intl
Flight Number -
Tags Generated
Created
Modified
Stats Distance 758 nm / 1,403 km
Max Altitude 0 ft / 0 m
Waypoints 4
Social Downloads 0
Likes 0
Share VATSIM

Download

Looking for another format? Having issues loading an existing format? Contact us
Advertisement - Login to hide

Notes

Generated

Route

EDDM PRT08 MON DTMB

ID Type Via Altitude Latitude Longitude Leg Dist Tot Dist Heading (true) Name
O EDDM APT - 0 ft / 0 m 48.34069˚ 11.75108˚ - 0 nm - -
PRT08 FIX - 0 ft / 0 m 43.87647˚ 11.36563˚ 268 nm 268 nm 184° / 183° -
MON VOR - 0 ft / 0 m 35.75492˚ 10.74806˚ 488 nm 757 nm 184° / 183° MONASTIR VOR-DME
O DTMB APT - 0 ft / 0 m 35.75411˚ 10.73844˚ 0 nm 757 nm 264° / 264° -

Altitude Profile

Advertisement - Login to hide

Weather


0- 5 10 15 20 25 30 35+ Temperature / ° C

Clouds and Precipitation
Forecast for 2017-12-15 00:00 UTC. Updated 12 minutes ago

Ground ~20,000 ft ~40,000 ft Winds

EDDM

Details ICAO EDDM (MUC)
Name Muenchen Franz-Josef Strauss
Region Germany - Civil
Timezone Europe/Berlin (UTC+1.0)
Stats Elevation 1,487 ft / 453 m (AMSL)
Location 48.353786° 11.786117°
Runways 2
Magnetic Variation 3.161° E

METAR

EDDM 141920Z 20006KT CAVOK 04/M01 Q0998 NOSIG

Decode

TAF

TAF EDDM 141700Z 1418/1524 22010KT 9999 BKN030 TEMPO 1420/1503 4000 RASN BKN012 PROB40 TEMPO 1422/1503 2500 SNRA BKN008 BECMG 1502/1504 24015G25KT PROB30 TEMPO 1503/1507 25020G35KT 2500 SHSNRA BKN008TCU BECMG 1514/1516 24005KT

Decode

Departure Runways

ID Width Length Bearing (true) Bearing (mag) Surface Threshold Offset Overrun Length
08L 197 ft / 60 m 13,086 ft / 3,989 m 83.38° 80.22° Concrete 0 ft / 0 m 0 ft / 0 m
08R 197 ft / 60 m 13,086 ft / 3,989 m 83.37° 80.21° Concrete 0 ft / 0 m 0 ft / 0 m
26L 197 ft / 60 m 13,086 ft / 3,989 m 263.41° 260.25° Concrete 0 ft / 0 m 0 ft / 0 m
26R 197 ft / 60 m 13,086 ft / 3,989 m 263.42° 260.26° Concrete 0 ft / 0 m 0 ft / 0 m

DTMB

Details ICAO DTMB (MIR)
Name Monastir Habib Bourguiba Intl
Region Tunisia
Timezone Africa/Tunis (UTC+1.0)
Stats Elevation 9 ft / 3 m (AMSL)
Location 35.757843° 10.754025°
Runways 1
Magnetic Variation 2.433° E

METAR

DTMB 141930Z 16003KT 8000 NSC 13/10 Q1020

Decode

TAF

TAF DTMB 141100Z 1412/1512 21010KT 9999 FEW020= TAF DTNH 141100Z 1412/1512 23012KT 99997?9?6LP TEMPO 1414/1422 VRB03KT

Decode

Destination Runways

ID Width Length Bearing (true) Bearing (mag) Surface Threshold Offset Overrun Length
07 148 ft / 45 m 9,627 ft / 2,934 m 73.54° 71.11° Asphalt 0 ft / 0 m 164 ft / 50 m
25 148 ft / 45 m 9,627 ft / 2,934 m 253.56° 251.13° Asphalt 0 ft / 0 m 164 ft / 50 m

Approach Navaids

Runway Type Ident Frequency Range Bearing (true) Bearing (mag) Slope Elevation
07 Localiser MIS 109.90 MHz 18 nm / 33 km 73.57° 71.14° - 9 ft / 3 m (AMSL)
07 Glidescope MIS 109.90 MHz 10 nm / 19 km 73.55° 71.12° 3.00° 9 ft / 3 m (AMSL)

Popular Alternatives